Time;durP1;ratioP1;P1;durP2;ratioP2;P2;SDS_P1;SDS_P2;PMS_P1;PMS_P2;Temp;Humidity;BMP_temperature;BMP_pressure;BME280_temperature;BME280_humidity;BME280_pressure;Samples;Min_cycle;Max_cycle;Signal;HPM_P1;HPM_P2
2023/11/11 00:02:24;;;;;;;;;;;22.70;45.20;;;;;;5116479;28;19977;-60
2023/11/11 00:04:51;;;;;;;;;;;22.70;45.20;;;;;;5116411;28;19928;-60
2023/11/11 00:07:18;;;;;;;;;;;22.70;45.20;;;;;;5116173;28;19923;-60
2023/11/11 00:09:45;;;;;;;;;;;22.70;45.20;;;;;;5116501;28;19971;-60
2023/11/11 00:12:12;;;;;;;;;;;22.70;45.20;;;;;;5116203;28;20268;-61
2023/11/11 00:14:39;;;;;;;;;;;22.70;45.20;;;;;;5115904;28;19927;-60
2023/11/11 00:17:07;;;;;;;;;;;22.70;45.30;;;;;;5116264;28;19963;-60
2023/11/11 00:19:34;;;;;;;;;;;22.70;45.30;;;;;;5115893;28;19924;-60
2023/11/11 00:22:02;;;;;;;;;;;22.60;45.40;;;;;;5116251;28;19923;-60
2023/11/11 00:24:29;;;;;;;;;;;22.60;45.30;;;;;;5115681;28;19930;-60
2023/11/11 00:26:57;;;;;;;;;;;22.60;45.30;;;;;;5115977;28;19924;-60
2023/11/11 00:29:24;;;;;;;;;;;22.60;45.30;;;;;;5115914;28;20444;-60
2023/11/11 00:31:51;;;;;;;;;;;22.60;45.30;;;;;;5114363;28;19924;-60
2023/11/11 00:34:20;;;;;;;;;;;22.60;45.30;;;;;;5115711;28;20023;-60
2023/11/11 00:36:50;;;;;;;;;;;22.60;45.30;;;;;;5115476;28;19923;-61
2023/11/11 00:39:17;;;;;;;;;;;22.60;45.30;;;;;;5115499;28;19931;-61
2023/11/11 00:41:44;;;;;;;;;;;22.60;45.30;;;;;;5115583;28;20154;-61
2023/11/11 00:44:11;;;;;;;;;;;22.60;45.30;;;;;;5115333;28;19931;-61
2023/11/11 00:46:39;;;;;;;;;;;22.60;45.30;;;;;;5097167;28;20384;-61
2023/11/11 00:49:07;;;;;;;;;;;22.60;45.30;;;;;;5115623;28;19962;-61
2023/11/11 00:51:39;;;;;;;;;;;22.60;45.40;;;;;;5097957;28;19924;-61
2023/11/11 00:54:07;;;;;;;;;;;22.60;45.40;;;;;;5115283;28;19923;-61
2023/11/11 00:56:35;;;;;;;;;;;22.70;45.40;;;;;;5115454;28;19945;-61
2023/11/11 00:59:03;;;;;;;;;;;22.60;45.50;;;;;;5115086;28;20022;-61
2023/11/11 01:01:33;;;;;;;;;;;22.60;45.40;;;;;;5115282;28;19953;-61
2023/11/11 01:04:01;;;;;;;;;;;22.60;45.40;;;;;;5114988;28;20334;-61
2023/11/11 01:06:29;;;;;;;;;;;22.60;45.40;;;;;;5115261;28;19923;-61
2023/11/11 01:08:56;;;;;;;;;;;22.60;45.40;;;;;;5115215;28;19924;-61
2023/11/11 01:11:23;;;;;;;;;;;22.60;45.40;;;;;;5115015;28;20355;-61
2023/11/11 01:13:50;;;;;;;;;;;22.60;45.30;;;;;;5114994;28;20338;-61
2023/11/11 01:16:17;;;;;;;;;;;22.60;45.30;;;;;;5115058;28;19924;-60
2023/11/11 01:18:44;;;;;;;;;;;22.60;45.30;;;;;;5114913;28;19924;-61
2023/11/11 01:21:11;;;;;;;;;;;22.70;45.30;;;;;;5096528;28;19924;-61
2023/11/11 01:23:39;;;;;;;;;;;22.60;45.30;;;;;;5114699;28;19923;-60
2023/11/11 01:26:05;;;;;;;;;;;22.60;45.30;;;;;;5114621;28;19953;-61
2023/11/11 01:28:32;;;;;;;;;;;22.60;45.30;;;;;;5114673;28;19985;-61
2023/11/11 01:30:59;;;;;;;;;;;22.60;45.30;;;;;;5114525;28;19982;-61
2023/11/11 01:33:27;;;;;;;;;;;22.60;45.30;;;;;;5114517;28;19931;-61
2023/11/11 01:35:54;;;;;;;;;;;22.60;45.30;;;;;;5114283;28;19924;-61
2023/11/11 01:38:21;;;;;;;;;;;22.60;45.90;;;;;;5096802;28;20063;-63
2023/11/11 01:40:48;;;;;;;;;;;22.60;45.30;;;;;;5114679;28;19927;-61
2023/11/11 01:43:15;;;;;;;;;;;22.60;45.30;;;;;;5113971;28;19971;-61
2023/11/11 01:45:43;;;;;;;;;;;22.60;45.30;;;;;;5114529;28;20035;-61
2023/11/11 01:48:13;;;;;;;;;;;22.60;45.40;;;;;;5114487;28;20331;-61
2023/11/11 01:50:43;;;;;;;;;;;22.60;45.40;;;;;;5114271;28;19924;-61
2023/11/11 01:53:11;;;;;;;;;;;22.60;45.40;;;;;;5114513;28;20014;-61
2023/11/11 01:55:38;;;;;;;;;;;22.60;45.40;;;;;;5114530;28;20052;-61
2023/11/11 01:58:05;;;;;;;;;;;22.60;45.40;;;;;;5114125;28;20383;-61
2023/11/11 02:00:35;;;;;;;;;;;22.60;45.40;;;;;;5114322;28;19959;-61
2023/11/11 02:03:03;;;;;;;;;;;22.60;45.40;;;;;;5114430;28;19984;-61
2023/11/11 02:05:30;;;;;;;;;;;22.60;45.40;;;;;;5114083;28;19928;-61
2023/11/11 02:07:58;;;;;;;;;;;22.60;45.40;;;;;;5114178;28;19970;-61
2023/11/11 02:10:25;;;;;;;;;;;22.60;45.40;;;;;;5114478;28;20035;-63
2023/11/11 02:12:52;;;;;;;;;;;22.60;45.40;;;;;;5114209;28;19924;-65
2023/11/11 02:15:22;;;;;;;;;;;22.60;45.40;;;;;;5105504;28;20292;-63
2023/11/11 02:17:49;;;;;;;;;;;22.60;45.50;;;;;;5114012;28;20433;-62
2023/11/11 02:20:16;;;;;;;;;;;22.60;45.50;;;;;;5114009;28;19924;-62
2023/11/11 02:22:43;;;;;;;;;;;22.60;45.50;;;;;;5114124;28;20014;-63
2023/11/11 02:25:10;;;;;;;;;;;22.60;45.50;;;;;;5113705;28;19981;-65
2023/11/11 02:27:37;;;;;;;;;;;22.60;45.50;;;;;;5113666;28;20422;-64
2023/11/11 02:30:06;;;;;;;;;;;22.60;45.40;;;;;;5114073;28;20276;-65
2023/11/11 02:32:33;;;;;;;;;;;22.60;45.40;;;;;;5113722;28;19934;-63
2023/11/11 02:35:00;;;;;;;;;;;22.60;45.40;;;;;;5113838;28;19970;-61
2023/11/11 02:37:27;;;;;;;;;;;22.60;45.50;;;;;;5114104;28;20284;-61
2023/11/11 02:39:54;;;;;;;;;;;22.60;45.40;;;;;;5113743;28;19924;-61
2023/11/11 02:42:21;;;;;;;;;;;22.60;45.40;;;;;;5113817;28;19984;-61
2023/11/11 02:44:48;;;;;;;;;;;22.60;45.40;;;;;;5113955;28;19930;-61
2023/11/11 02:47:15;;;;;;;;;;;22.60;45.50;;;;;;5113587;28;19928;-61
2023/11/11 02:49:42;;;;;;;;;;;22.50;45.40;;;;;;5095876;28;19963;-58
2023/11/11 02:52:09;;;;;;;;;;;22.60;45.50;;;;;;5094617;28;19924;-58
2023/11/11 02:54:36;;;;;;;;;;;22.50;45.40;;;;;;5094268;28;19975;-60
2023/11/11 02:57:03;;;;;;;;;;;22.60;45.50;;;;;;5097087;28;19924;-59
2023/11/11 02:59:30;;;;;;;;;;;22.60;45.50;;;;;;5097085;28;19928;-59
2023/11/11 03:01:57;;;;;;;;;;;22.50;45.50;;;;;;5096925;28;20367;-59
2023/11/11 03:04:24;;;;;;;;;;;22.60;45.50;;;;;;5110271;28;20014;-59
2023/11/11 03:06:51;;;;;;;;;;;22.50;45.50;;;;;;5117260;28;19946;-59
2023/11/11 03:09:18;;;;;;;;;;;22.50;45.50;;;;;;5107697;28;19970;-59
2023/11/11 03:11:45;;;;;;;;;;;22.50;45.50;;;;;;5115891;28;19977;-59
2023/11/11 03:14:13;;;;;;;;;;;22.50;45.50;;;;;;5108019;28;20341;-59
2023/11/11 03:16:40;;;;;;;;;;;22.50;45.50;;;;;;5099456;28;19973;-59
2023/11/11 03:19:07;;;;;;;;;;;22.50;45.50;;;;;;5117212;28;20329;-60
2023/11/11 03:21:34;;;;;;;;;;;22.50;45.50;;;;;;5117354;28;19924;-59
2023/11/11 03:24:04;;;;;;;;;;;22.50;45.50;;;;;;5115131;28;20208;-59
2023/11/11 03:26:31;;;;;;;;;;;22.50;45.50;;;;;;5117017;28;20302;-59
2023/11/11 03:28:58;;;;;;;;;;;22.50;45.50;;;;;;5117054;28;19967;-59
2023/11/11 03:31:25;;;;;;;;;;;22.50;45.50;;;;;;5116711;28;19924;-59
2023/11/11 03:33:52;;;;;;;;;;;22.50;45.60;;;;;;5115587;28;19969;-60
2023/11/11 03:36:19;;;;;;;;;;;22.50;45.60;;;;;;5116701;28;20368;-59
2023/11/11 03:38:46;;;;;;;;;;;22.50;45.60;;;;;;5116606;28;19923;-59
2023/11/11 03:41:13;;;;;;;;;;;22.50;45.60;;;;;;5116896;28;20359;-59
2023/11/11 03:43:40;;;;;;;;;;;22.50;45.60;;;;;;5116871;28;19979;-59
2023/11/11 03:46:08;;;;;;;;;;;22.50;45.60;;;;;;5116507;28;19954;-59
2023/11/11 03:48:35;;;;;;;;;;;22.50;45.60;;;;;;5116460;28;19924;-59
2023/11/11 03:51:03;;;;;;;;;;;22.50;45.50;;;;;;5116749;28;19931;-59
2023/11/11 03:53:29;;;;;;;;;;;22.50;45.70;;;;;;5098820;28;20019;-59
2023/11/11 03:55:56;;;;;;;;;;;22.50;45.50;;;;;;5116209;28;19924;-59
2023/11/11 03:58:23;;;;;;;;;;;22.50;45.50;;;;;;5116657;28;20018;-59
2023/11/11 04:00:50;;;;;;;;;;;22.50;45.50;;;;;;5116557;28;20006;-60
2023/11/11 04:03:17;;;;;;;;;;;22.50;45.50;;;;;;5116251;28;20023;-59
2023/11/11 04:05:46;;;;;;;;;;;22.50;45.50;;;;;;5116087;28;19931;-59
2023/11/11 04:08:13;;;;;;;;;;;22.50;45.50;;;;;;5116373;28;20326;-59
2023/11/11 04:10:40;;;;;;;;;;;22.50;45.50;;;;;;5116033;28;19935;-59
2023/11/11 04:13:09;;;;;;;;;;;22.50;45.50;;;;;;5116294;28;19963;-59
2023/11/11 04:15:36;;;;;;;;;;;22.50;45.60;;;;;;5115902;28;19928;-59
2023/11/11 04:18:03;;;;;;;;;;;22.50;45.60;;;;;;5116294;28;19931;-59
2023/11/11 04:20:30;;;;;;;;;;;22.50;45.60;;;;;;5115929;28;19923;-59
2023/11/11 04:22:57;;;;;;;;;;;22.50;45.60;;;;;;5116154;28;19971;-59
2023/11/11 04:25:24;;;;;;;;;;;22.50;45.60;;;;;;5116014;28;19928;-59
2023/11/11 04:27:51;;;;;;;;;;;22.50;45.60;;;;;;5115660;28;19950;-60
2023/11/11 04:30:17;;;;;;;;;;;22.50;45.60;;;;;;5115838;28;19974;-60
2023/11/11 04:32:45;;;;;;;;;;;22.50;45.70;;;;;;5115872;28;19950;-59
2023/11/11 04:35:13;;;;;;;;;;;22.50;45.60;;;;;;5115716;28;20001;-60
2023/11/11 04:37:40;;;;;;;;;;;22.50;45.70;;;;;;5115849;28;19932;-59
2023/11/11 04:40:08;;;;;;;;;;;22.50;45.50;;;;;;5115618;28;19923;-60
2023/11/11 04:42:35;;;;;;;;;;;22.50;45.40;;;;;;5115461;28;19931;-59
2023/11/11 04:45:03;;;;;;;;;;;22.50;45.30;;;;;;5115297;28;19924;-59
2023/11/11 04:47:30;;;;;;;;;;;22.50;45.20;;;;;;5115498;28;20018;-60
2023/11/11 04:49:57;;;;;;;;;;;22.50;45.20;;;;;;5097542;28;19924;-59
2023/11/11 04:52:25;;;;;;;;;;;22.50;45.10;;;;;;5097520;28;19969;-59
2023/11/11 04:54:52;;;;;;;;;;;22.60;45.10;;;;;;5115142;28;19924;-59
2023/11/11 04:57:19;;;;;;;;;;;22.50;45.00;;;;;;5115403;28;19954;-59
2023/11/11 04:59:46;;;;;;;;;;;22.50;45.00;;;;;;5115303;28;19924;-59
2023/11/11 05:02:13;;;;;;;;;;;22.50;45.00;;;;;;5115616;28;19949;-59
2023/11/11 05:04:40;;;;;;;;;;;22.50;45.00;;;;;;5115211;28;20105;-59
2023/11/11 05:07:09;;;;;;;;;;;22.50;45.00;;;;;;5114969;28;19981;-60
2023/11/11 05:09:36;;;;;;;;;;;22.50;45.10;;;;;;5114823;28;19955;-60
2023/11/11 05:12:05;;;;;;;;;;;22.50;45.10;;;;;;5114793;28;19924;-60
2023/11/11 05:14:31;;;;;;;;;;;22.50;45.10;;;;;;5114873;28;20366;-60
2023/11/11 05:17:07;;;;;;;;;;;22.50;45.10;;;;;;5114374;28;19977;-60
2023/11/11 05:19:34;;;;;;;;;;;22.50;45.10;;;;;;5114690;28;20264;-60
2023/11/11 05:22:05;;;;;;;;;;;22.50;45.10;;;;;;5114986;28;19932;-60
2023/11/11 05:24:33;;;;;;;;;;;22.50;45.20;;;;;;5114570;28;19962;-60
2023/11/11 05:27:00;;;;;;;;;;;22.50;45.20;;;;;;5114656;28;19970;-60
2023/11/11 05:29:27;;;;;;;;;;;22.50;45.20;;;;;;5096356;28;19963;-60
2023/11/11 05:31:54;;;;;;;;;;;22.50;45.20;;;;;;5114494;28;19977;-60
2023/11/11 05:34:21;;;;;;;;;;;22.40;45.20;;;;;;5114483;28;19974;-60
2023/11/11 05:36:47;;;;;;;;;;;22.40;45.20;;;;;;5114384;28;20018;-60
2023/11/11 05:39:15;;;;;;;;;;;22.40;45.20;;;;;;5114586;28;19930;-60
2023/11/11 05:41:42;;;;;;;;;;;22.40;45.20;;;;;;5114358;28;19927;-60
2023/11/11 05:44:12;;;;;;;;;;;22.40;45.20;;;;;;5096485;28;19924;-59
2023/11/11 05:46:39;;;;;;;;;;;22.40;45.20;;;;;;5114284;28;19978;-59
2023/11/11 05:49:07;;;;;;;;;;;22.50;45.20;;;;;;5114488;28;19963;-60
2023/11/11 05:51:34;;;;;;;;;;;22.50;45.20;;;;;;5118579;27;20010;-59
2023/11/11 05:54:04;;;;;;;;;;;22.50;45.10;;;;;;5126085;27;19985;-60
2023/11/11 05:56:31;;;;;;;;;;;22.50;45.20;;;;;;5114190;28;19924;-59
2023/11/11 05:58:59;;;;;;;;;;;22.50;45.10;;;;;;5114180;28;19966;-59
2023/11/11 06:01:26;;;;;;;;;;;22.50;45.10;;;;;;5113815;28;19924;-60
2023/11/11 06:03:53;;;;;;;;;;;22.50;45.00;;;;;;5114040;28;19924;-60
2023/11/11 06:06:20;;;;;;;;;;;22.50;45.00;;;;;;5114304;28;20314;-60
2023/11/11 06:08:47;;;;;;;;;;;22.50;45.00;;;;;;5113931;28;19924;-59
2023/11/11 06:11:15;;;;;;;;;;;22.60;45.00;;;;;;5096171;28;19930;-60
2023/11/11 06:13:42;;;;;;;;;;;22.60;45.00;;;;;;5114446;28;19924;-59
2023/11/11 06:16:09;;;;;;;;;;;22.60;45.00;;;;;;5113828;28;20387;-60
2023/11/11 06:18:36;;;;;;;;;;;22.60;45.00;;;;;;5114033;28;19931;-59
2023/11/11 06:21:04;;;;;;;;;;;22.50;45.00;;;;;;5113420;28;19970;-60
2023/11/11 06:23:31;;;;;;;;;;;22.50;45.00;;;;;;5113702;28;20322;-60
2023/11/11 06:26:01;;;;;;;;;;;22.60;45.00;;;;;;5113795;28;20394;-60
2023/11/11 06:28:28;;;;;;;;;;;22.60;45.00;;;;;;5114864;28;19923;-60
2023/11/11 06:30:55;;;;;;;;;;;22.60;45.00;;;;;;5117903;28;20426;-60
2023/11/11 06:33:22;;;;;;;;;;;22.60;44.90;;;;;;5100295;28;20014;-60
2023/11/11 06:35:49;;;;;;;;;;;22.60;44.90;;;;;;5118115;28;20022;-60
2023/11/11 06:38:16;;;;;;;;;;;22.60;44.90;;;;;;5118027;28;19982;-60
2023/11/11 06:40:44;;;;;;;;;;;22.60;44.90;;;;;;5117671;28;19924;-60
2023/11/11 06:43:11;;;;;;;;;;;22.60;44.90;;;;;;5099337;28;19923;-63
2023/11/11 06:45:39;;;;;;;;;;;22.60;44.90;;;;;;5125125;27;19923;-60
2023/11/11 06:48:06;;;;;;;;;;;22.60;44.90;;;;;;5138426;27;19923;-60
2023/11/11 06:50:34;;;;;;;;;;;22.60;44.90;;;;;;5138037;27;20388;-60
2023/11/11 06:53:01;;;;;;;;;;;22.60;44.90;;;;;;5118681;27;20385;-60
2023/11/11 06:55:30;;;;;;;;;;;22.60;44.80;;;;;;5117661;28;19966;-60
2023/11/11 06:57:57;;;;;;;;;;;22.60;44.80;;;;;;5117431;28;19977;-60
2023/11/11 07:00:25;;;;;;;;;;;22.60;44.80;;;;;;5117575;28;20329;-61
2023/11/11 07:02:54;;;;;;;;;;;22.60;44.80;;;;;;5117328;28;19924;-60
2023/11/11 07:05:21;;;;;;;;;;;22.60;44.80;;;;;;5117600;28;19942;-61
2023/11/11 07:07:48;;;;;;;;;;;22.60;44.80;;;;;;5117409;28;20023;-60
2023/11/11 07:10:15;;;;;;;;;;;22.60;44.80;;;;;;5117077;28;20022;-61
2023/11/11 07:12:44;;;;;;;;;;;22.60;44.80;;;;;;5117262;28;19924;-60
2023/11/11 07:15:11;;;;;;;;;;;22.60;44.70;;;;;;5117033;28;19935;-60
2023/11/11 07:17:41;;;;;;;;;;;22.60;44.70;;;;;;5117320;28;19959;-61
2023/11/11 07:20:10;;;;;;;;;;;22.60;44.70;;;;;;5116834;28;20367;-60
2023/11/11 07:22:37;;;;;;;;;;;22.60;44.60;;;;;;5117306;28;20010;-60
2023/11/11 07:25:05;;;;;;;;;;;22.60;44.60;;;;;;5099318;28;20275;-60
2023/11/11 07:27:35;;;;;;;;;;;22.60;45.10;;;;;;5117169;28;20359;-61
2023/11/11 07:30:05;;;;;;;;;;;22.70;44.60;;;;;;5099567;28;19981;-61
2023/11/11 07:32:32;;;;;;;;;;;22.60;45.10;;;;;;5116819;28;20399;-60
2023/11/11 07:35:00;;;;;;;;;;;22.60;44.50;;;;;;5116732;28;19924;-60
2023/11/11 07:37:27;;;;;;;;;;;22.70;44.50;;;;;;5117134;28;20371;-60
2023/11/11 07:39:55;;;;;;;;;;;22.70;44.50;;;;;;5116287;28;19924;-60
2023/11/11 07:42:22;;;;;;;;;;;22.70;44.50;;;;;;5129605;27;20006;-61
2023/11/11 07:44:49;;;;;;;;;;;22.70;44.50;;;;;;5137239;27;19952;-60
2023/11/11 07:47:16;;;;;;;;;;;22.70;44.50;;;;;;5119345;27;20413;-60
2023/11/11 07:49:43;;;;;;;;;;;22.70;44.50;;;;;;5116645;28;19967;-60
2023/11/11 07:52:13;;;;;;;;;;;22.70;44.50;;;;;;5116084;28;19924;-60
2023/11/11 07:54:40;;;;;;;;;;;22.70;44.50;;;;;;5116738;28;19924;-60
2023/11/11 07:57:07;;;;;;;;;;;22.70;44.40;;;;;;5116881;28;19923;-61
2023/11/11 07:59:38;;;;;;;;;;;22.70;44.40;;;;;;5116352;28;19928;-61
2023/11/11 08:02:06;;;;;;;;;;;22.70;44.40;;;;;;5116376;28;20333;-60
2023/11/11 08:04:33;;;;;;;;;;;22.70;44.90;;;;;;5116468;28;19927;-61
2023/11/11 08:07:00;;;;;;;;;;;22.70;44.40;;;;;;5115422;28;19923;-60
2023/11/11 08:09:27;;;;;;;;;;;22.70;44.40;;;;;;5116306;28;20431;-61
2023/11/11 08:11:54;;;;;;;;;;;22.70;44.40;;;;;;5116614;28;19923;-60
2023/11/11 08:14:21;;;;;;;;;;;22.70;44.40;;;;;;5115764;28;19923;-60
2023/11/11 08:16:48;;;;;;;;;;;22.70;44.40;;;;;;5116298;28;20361;-61
2023/11/11 08:19:15;;;;;;;;;;;22.70;44.40;;;;;;5116320;28;19969;-60
2023/11/11 08:21:42;;;;;;;;;;;22.70;44.40;;;;;;5115708;28;19928;-60
2023/11/11 08:24:09;;;;;;;;;;;22.70;44.40;;;;;;5116108;28;20014;-60
2023/11/11 08:26:36;;;;;;;;;;;22.70;44.40;;;;;;5115803;28;20322;-60
2023/11/11 08:29:03;;;;;;;;;;;22.70;44.30;;;;;;5115995;28;19923;-60
2023/11/11 08:31:30;;;;;;;;;;;22.70;44.30;;;;;;5115564;28;19997;-61
2023/11/11 08:33:58;;;;;;;;;;;22.70;44.30;;;;;;5115799;28;20360;-60
2023/11/11 08:36:26;;;;;;;;;;;22.70;44.20;;;;;;5115760;28;20287;-60
2023/11/11 08:38:53;;;;;;;;;;;22.70;44.20;;;;;;5115464;28;20014;-60
2023/11/11 08:41:20;;;;;;;;;;;22.80;44.20;;;;;;5115301;28;19923;-60
2023/11/11 08:43:47;;;;;;;;;;;22.80;44.10;;;;;;5115858;28;20006;-60
2023/11/11 08:46:14;;;;;;;;;;;22.80;44.10;;;;;;5115279;28;19923;-60
2023/11/11 08:48:41;;;;;;;;;;;22.80;44.00;;;;;;5115516;28;19931;-60
2023/11/11 08:51:09;;;;;;;;;;;22.80;44.00;;;;;;5115085;28;20368;-60
2023/11/11 08:53:36;;;;;;;;;;;22.80;44.00;;;;;;5114547;28;20437;-61
2023/11/11 08:56:03;;;;;;;;;;;22.80;43.90;;;;;;5115284;28;19971;-58
2023/11/11 08:58:30;;;;;;;;;;;22.80;43.90;;;;;;5097559;28;19978;-58
2023/11/11 09:00:59;;;;;;;;;;;22.80;43.90;;;;;;5114857;28;20014;-58
2023/11/11 09:03:27;;;;;;;;;;;22.90;43.90;;;;;;5115238;28;19924;-58
2023/11/11 09:05:55;;;;;;;;;;;22.90;44.40;;;;;;5115109;28;19931;-59
2023/11/11 09:08:24;;;;;;;;;;;22.90;43.80;;;;;;5114955;28;19928;-58
2023/11/11 09:10:51;;;;;;;;;;;22.90;43.90;;;;;;5114952;28;20474;-58
2023/11/11 09:13:22;;;;;;;;;;;22.90;43.80;;;;;;5115154;28;20010;-58
2023/11/11 09:15:50;;;;;;;;;;;22.90;43.80;;;;;;5114681;28;19923;-58
2023/11/11 09:18:18;;;;;;;;;;;22.90;43.80;;;;;;5115116;28;19924;-58
2023/11/11 09:20:45;;;;;;;;;;;22.90;43.80;;;;;;5114707;28;19924;-58
2023/11/11 09:23:12;;;;;;;;;;;22.80;43.80;;;;;;5115039;28;20004;-59
2023/11/11 09:25:39;;;;;;;;;;;22.90;43.80;;;;;;5096708;28;20371;-60
2023/11/11 09:28:07;;;;;;;;;;;22.90;43.80;;;;;;5115014;28;20003;-59
2023/11/11 09:30:34;;;;;;;;;;;22.90;43.80;;;;;;5114309;28;19924;-59
2023/11/11 09:33:03;;;;;;;;;;;22.90;43.70;;;;;;5114741;28;19930;-59
2023/11/11 09:35:30;;;;;;;;;;;22.90;43.70;;;;;;5114456;28;19931;-59
2023/11/11 09:37:58;;;;;;;;;;;22.90;43.70;;;;;;5114775;28;20338;-59
2023/11/11 09:40:26;;;;;;;;;;;22.90;43.70;;;;;;5114409;28;19946;-59
2023/11/11 09:42:53;;;;;;;;;;;22.90;43.70;;;;;;5096267;28;19927;-60
2023/11/11 09:45:21;;;;;;;;;;;22.90;43.70;;;;;;5114344;28;19971;-60
2023/11/11 09:47:52;;;;;;;;;;;23.00;43.70;;;;;;5114221;28;19974;-59
2023/11/11 09:50:20;;;;;;;;;;;22.90;43.70;;;;;;5114138;28;19930;-59
2023/11/11 09:52:48;;;;;;;;;;;22.90;43.60;;;;;;5114191;28;19971;-60
2023/11/11 09:55:16;;;;;;;;;;;22.90;43.60;;;;;;5114424;28;19976;-59
2023/11/11 09:57:45;;;;;;;;;;;22.90;43.70;;;;;;5114352;28;19980;-60
2023/11/11 10:00:13;;;;;;;;;;;22.90;43.70;;;;;;5114439;28;19974;-59
2023/11/11 10:02:41;;;;;;;;;;;22.90;43.60;;;;;;5113875;28;20375;-59
2023/11/11 10:05:12;;;;;;;;;;;22.90;43.60;;;;;;5114104;28;20054;-59
2023/11/11 10:07:40;;;;;;;;;;;22.90;43.60;;;;;;5113935;28;19927;-59
2023/11/11 10:10:08;;;;;;;;;;;23.00;43.60;;;;;;5113843;28;19930;-60
2023/11/11 10:12:39;;;;;;;;;;;22.90;43.50;;;;;;5114239;28;19992;-59
2023/11/11 10:15:08;;;;;;;;;;;23.00;43.70;;;;;;5113916;28;19930;-60
2023/11/11 10:17:35;;;;;;;;;;;22.90;43.50;;;;;;5113843;28;20372;-59
2023/11/11 10:20:05;;;;;;;;;;;22.90;43.50;;;;;;5113865;28;19924;-60
2023/11/11 10:22:37;;;;;;;;;;;22.90;43.50;;;;;;5113791;28;20459;-60
2023/11/11 10:25:05;;;;;;;;;;;22.90;43.50;;;;;;5113814;28;20380;-59
2023/11/11 10:27:32;;;;;;;;;;;22.90;43.50;;;;;;5114066;28;19969;-60
2023/11/11 10:30:00;;;;;;;;;;;22.90;43.40;;;;;;5114365;28;19946;-59
2023/11/11 10:32:28;;;;;;;;;;;22.90;43.40;;;;;;5114073;28;19928;-60
2023/11/11 10:34:59;;;;;;;;;;;22.90;43.40;;;;;;5114224;28;19924;-62
2023/11/11 10:37:26;;;;;;;;;;;22.90;43.30;;;;;;5113790;28;19924;-60
2023/11/11 10:39:52;;;;;;;;;;;23.00;43.30;;;;;;5114077;28;20023;-61
2023/11/11 10:42:20;;;;;;;;;;;23.00;43.30;;;;;;5113607;28;20429;-60
2023/11/11 10:44:47;;;;;;;;;;;23.00;43.30;;;;;;5114006;28;19955;-67
2023/11/11 10:47:14;;;;;;;;;;;22.90;43.20;;;;;;5113745;28;19977;-62
2023/11/11 10:49:42;;;;;;;;;;;23.00;43.20;;;;;;5113353;28;20023;-61
2023/11/11 10:52:09;;;;;;;;;;;23.00;43.10;;;;;;5113995;28;19931;-67
2023/11/11 10:54:37;;;;;;;;;;;23.00;43.10;;;;;;5113478;28;19924;-63
2023/11/11 10:57:04;;;;;;;;;;;23.00;43.10;;;;;;5113822;28;19924;-61
2023/11/11 10:59:31;;;;;;;;;;;23.00;43.10;;;;;;5113805;28;19977;-60
2023/11/11 11:01:59;;;;;;;;;;;23.00;43.10;;;;;;5113312;28;19974;-61
2023/11/11 11:04:29;;;;;;;;;;;23.00;43.00;;;;;;5113287;28;20375;-60
2023/11/11 11:07:09;;;;;;;;;;;23.00;42.90;;;;;;5113779;28;20321;-61
2023/11/11 11:09:43;;;;;;;;;;;23.00;42.80;;;;;;5113287;28;19924;-61
2023/11/11 11:12:21;;;;;;;;;;;23.00;42.80;;;;;;5113331;28;20006;-61
2023/11/11 11:14:55;;;;;;;;;;;23.10;42.70;;;;;;5113388;28;19923;-61
2023/11/11 11:17:33;;;;;;;;;;;23.10;42.60;;;;;;5098874;28;19930;-61
2023/11/11 11:20:02;;;;;;;;;;;23.10;42.50;;;;;;5117289;28;20341;-61
2023/11/11 11:22:34;;;;;;;;;;;23.10;42.50;;;;;;5099555;28;20018;-61
2023/11/11 11:25:21;;;;;;;;;;;23.10;42.40;;;;;;5117343;28;19924;-61
2023/11/11 11:28:08;;;;;;;;;;;23.10;42.40;;;;;;5117574;28;19931;-61
2023/11/11 11:30:39;;;;;;;;;;;23.10;42.30;;;;;;5116588;28;19978;-61
2023/11/11 11:33:06;;;;;;;;;;;23.10;42.20;;;;;;5116731;28;20437;-61
2023/11/11 11:35:35;;;;;;;;;;;23.10;42.20;;;;;;5116838;28;19923;-61
2023/11/11 11:38:03;;;;;;;;;;;23.10;42.20;;;;;;5117287;28;19928;-61
2023/11/11 11:40:30;;;;;;;;;;;23.10;42.10;;;;;;5116692;28;19974;-61
2023/11/11 11:42:57;;;;;;;;;;;23.10;42.10;;;;;;5116803;28;20083;-61
2023/11/11 11:45:28;;;;;;;;;;;23.10;41.90;;;;;;5116610;28;19928;-61
2023/11/11 11:47:56;;;;;;;;;;;23.20;42.00;;;;;;5116866;28;19927;-61
2023/11/11 11:50:23;;;;;;;;;;;23.10;42.00;;;;;;5116631;28;19924;-61
2023/11/11 11:52:50;;;;;;;;;;;23.10;42.10;;;;;;5116652;28;19928;-61
2023/11/11 11:55:18;;;;;;;;;;;23.10;42.10;;;;;;5116199;28;20428;-61
2023/11/11 11:57:55;;;;;;;;;;;23.10;42.10;;;;;;5116300;28;20374;-61
2023/11/11 12:00:24;;;;;;;;;;;23.10;42.10;;;;;;5116558;28;19976;-61
2023/11/11 12:02:54;;;;;;;;;;;23.10;42.10;;;;;;5116192;28;19923;-61
2023/11/11 12:05:23;;;;;;;;;;;23.10;42.10;;;;;;5116266;28;19946;-61
2023/11/11 12:07:51;;;;;;;;;;;23.10;42.10;;;;;;5116381;28;19924;-61
2023/11/11 12:10:21;;;;;;;;;;;23.10;42.10;;;;;;5116666;28;19924;-61
2023/11/11 12:12:48;;;;;;;;;;;23.10;42.10;;;;;;5116481;28;19977;-61
2023/11/11 12:15:15;;;;;;;;;;;23.10;42.10;;;;;;5097837;28;19941;-60
2023/11/11 12:17:45;;;;;;;;;;;23.10;42.20;;;;;;5116064;28;19923;-59
2023/11/11 12:20:14;;;;;;;;;;;23.10;42.10;;;;;;5116255;28;20329;-60
2023/11/11 12:22:44;;;;;;;;;;;23.10;42.10;;;;;;5116164;28;19924;-60
2023/11/11 12:25:11;;;;;;;;;;;23.10;42.20;;;;;;5115832;28;19923;-60
2023/11/11 12:27:39;;;;;;;;;;;23.10;42.10;;;;;;5115710;28;19959;-59
2023/11/11 12:30:18;;;;;;;;;;;23.10;42.10;;;;;;5116047;28;19931;-60
2023/11/11 12:33:03;;;;;;;;;;;23.10;42.20;;;;;;5115838;28;20014;-59
2023/11/11 12:35:31;;;;;;;;;;;23.10;42.10;;;;;;5115460;28;19924;-59
2023/11/11 12:37:58;;;;;;;;;;;23.10;42.10;;;;;;5115850;28;20036;-60
2023/11/11 12:40:33;;;;;;;;;;;23.10;42.10;;;;;;5115825;28;19928;-59
2023/11/11 12:43:00;;;;;;;;;;;23.10;42.20;;;;;;5115398;28;20019;-60
2023/11/11 12:45:30;;;;;;;;;;;23.10;42.10;;;;;;5115824;28;20375;-59
2023/11/11 12:47:57;;;;;;;;;;;23.10;42.20;;;;;;5116142;28;19973;-60
2023/11/11 12:50:31;;;;;;;;;;;23.10;42.20;;;;;;5115594;28;20278;-59
2023/11/11 12:53:11;;;;;;;;;;;23.00;42.20;;;;;;5115736;28;19963;-59
2023/11/11 12:55:38;;;;;;;;;;;23.00;42.20;;;;;;5115463;28;20319;-59
2023/11/11 12:58:22;;;;;;;;;;;23.00;42.20;;;;;;5115432;28;19931;-59
2023/11/11 13:00:50;;;;;;;;;;;23.00;42.20;;;;;;5115300;28;19924;-59
2023/11/11 13:03:25;;;;;;;;;;;23.00;42.20;;;;;;5115248;28;19932;-60
2023/11/11 13:05:59;;;;;;;;;;;23.00;42.20;;;;;;5115325;28;19924;-59
2023/11/11 13:08:27;;;;;;;;;;;23.00;42.20;;;;;;5115331;28;19923;-60
2023/11/11 13:10:56;;;;;;;;;;;23.00;42.20;;;;;;5114935;28;19924;-59
2023/11/11 13:13:23;;;;;;;;;;;23.00;42.20;;;;;;5097322;28;19924;-59
2023/11/11 13:15:51;;;;;;;;;;;23.00;42.20;;;;;;5096742;28;19931;-59
2023/11/11 13:18:19;;;;;;;;;;;23.00;42.20;;;;;;5114711;28;20341;-59
2023/11/11 13:20:46;;;;;;;;;;;23.00;42.20;;;;;;5114830;28;19927;-59
2023/11/11 13:23:15;;;;;;;;;;;23.00;42.20;;;;;;5115149;28;19924;-59
2023/11/11 13:25:42;;;;;;;;;;;23.00;42.20;;;;;;5114455;28;19923;-59
2023/11/11 13:28:10;;;;;;;;;;;23.00;42.20;;;;;;5114659;28;19927;-59
2023/11/11 13:30:38;;;;;;;;;;;23.00;42.20;;;;;;5114896;28;19969;-59
2023/11/11 13:33:08;;;;;;;;;;;23.00;42.20;;;;;;5114635;28;19928;-59
2023/11/11 13:35:36;;;;;;;;;;;23.00;42.20;;;;;;5114663;28;19932;-59
2023/11/11 13:38:10;;;;;;;;;;;23.00;42.20;;;;;;5113972;28;19953;-59
2023/11/11 13:40:42;;;;;;;;;;;23.00;42.20;;;;;;5114222;28;20329;-59
2023/11/11 13:43:10;;;;;;;;;;;23.00;42.20;;;;;;5114619;28;19967;-59
2023/11/11 13:45:37;;;;;;;;;;;23.00;42.20;;;;;;5114048;28;19923;-59
2023/11/11 13:48:05;;;;;;;;;;;23.00;42.10;;;;;;5114297;28;19981;-59
2023/11/11 13:50:33;;;;;;;;;;;23.00;42.60;;;;;;5114559;28;19931;-60
2023/11/11 13:53:00;;;;;;;;;;;23.00;42.00;;;;;;5114622;28;19923;-59
2023/11/11 13:55:27;;;;;;;;;;;23.10;41.90;;;;;;5114404;28;20024;-60
2023/11/11 13:57:54;;;;;;;;;;;23.10;41.90;;;;;;5114507;28;19923;-59
2023/11/11 14:00:26;;;;;;;;;;;23.10;41.90;;;;;;5114084;28;20388;-60
2023/11/11 14:02:59;;;;;;;;;;;23.10;41.90;;;;;;5113902;28;19924;-60
2023/11/11 14:05:26;;;;;;;;;;;23.20;41.90;;;;;;5114515;28;20409;-60
2023/11/11 14:07:53;;;;;;;;;;;23.20;41.90;;;;;;5113859;28;19931;-59
2023/11/11 14:10:26;;;;;;;;;;;23.20;42.00;;;;;;5096144;28;20008;-59
2023/11/11 14:12:57;;;;;;;;;;;23.20;42.00;;;;;;5114358;28;19970;-60
2023/11/11 14:15:35;;;;;;;;;;;23.20;42.00;;;;;;5113833;28;19931;-60
2023/11/11 14:18:02;;;;;;;;;;;23.20;42.00;;;;;;5114033;28;19931;-60
2023/11/11 14:20:30;;;;;;;;;;;23.20;42.00;;;;;;5114200;28;19923;-60
2023/11/11 14:22:57;;;;;;;;;;;23.20;42.10;;;;;;5114146;28;19966;-60